createdAt,value
2022-12-06T00:02:13.224Z,3.75
2022-12-06T00:04:40.112Z,3.42
2022-12-06T00:07:06.977Z,3.85
2022-12-06T00:09:33.770Z,3.55
2022-12-06T00:12:00.550Z,3.72
2022-12-06T00:14:28.517Z,4.40
2022-12-06T00:16:55.525Z,3.63
2022-12-06T00:19:23.745Z,3.90
2022-12-06T00:21:51.412Z,4.10
2022-12-06T00:24:20.701Z,3.70
2022-12-06T00:26:49.223Z,3.97
2022-12-06T00:29:21.769Z,4.00
2022-12-06T00:31:49.654Z,3.78
2022-12-06T00:34:16.918Z,3.67
2022-12-06T00:36:44.134Z,3.67
2022-12-06T00:39:13.738Z,3.35
2022-12-06T00:41:41.543Z,3.50
2022-12-06T00:44:08.703Z,3.58
2022-12-06T00:46:36.520Z,4.00
2022-12-06T00:49:05.316Z,3.83
2022-12-06T00:51:34.157Z,3.33
2022-12-06T00:54:00.990Z,3.42
2022-12-06T00:56:28.142Z,3.50
2022-12-06T00:58:55.141Z,3.13
2022-12-06T01:01:27.855Z,3.33
2022-12-06T01:03:57.629Z,3.20
2022-12-06T01:06:28.237Z,3.30
2022-12-06T01:08:56.540Z,3.22
2022-12-06T01:11:24.712Z,3.50
2022-12-06T01:13:52.731Z,3.55
2022-12-06T01:16:22.962Z,3.13
2022-12-06T01:18:59.678Z,3.45
2022-12-06T01:21:27.943Z,4.00
2022-12-06T01:23:54.746Z,3.47
2022-12-06T01:26:23.422Z,3.50
2022-12-06T01:28:50.530Z,3.20
2022-12-06T01:31:17.694Z,3.15
2022-12-06T01:33:45.291Z,3.30
2022-12-06T01:36:24.046Z,4.10
2022-12-06T01:38:52.495Z,3.75
2022-12-06T01:41:20.927Z,3.35
2022-12-06T01:43:48.294Z,3.80
2022-12-06T01:46:22.114Z,3.25
2022-12-06T01:48:52.726Z,3.63
2022-12-06T01:51:19.815Z,3.80
2022-12-06T01:53:49.516Z,3.58
2022-12-06T01:56:16.676Z,3.25
2022-12-06T01:58:46.949Z,3.10
2022-12-06T02:01:14.187Z,3.05
2022-12-06T02:03:42.323Z,3.60
2022-12-06T02:06:09.529Z,3.25
2022-12-06T02:08:37.826Z,3.33
2022-12-06T02:11:05.432Z,3.10
2022-12-06T02:13:33.946Z,3.30
2022-12-06T02:16:52.827Z,2.88
2022-12-06T02:19:46.698Z,2.92
2022-12-06T02:22:25.762Z,2.95
2022-12-06T02:25:13.752Z,2.92
2022-12-06T02:28:02.115Z,3.40
2022-12-06T02:30:38.577Z,3.20
2022-12-06T02:33:21.896Z,3.17
2022-12-06T02:35:59.295Z,3.22
2022-12-06T02:38:36.516Z,3.10
2022-12-06T02:41:16.321Z,3.30
2022-12-06T02:43:50.741Z,2.92
2022-12-06T02:46:21.468Z,2.80
2022-12-06T02:48:50.878Z,2.90
2022-12-06T02:51:19.359Z,2.90
2022-12-06T02:53:49.836Z,3.10
2022-12-06T02:56:18.063Z,2.65
2022-12-06T02:58:45.021Z,3.10
2022-12-06T03:01:22.672Z,3.15
2022-12-06T03:03:58.155Z,3.10
2022-12-06T03:06:43.347Z,3.03
2022-12-06T03:09:37.762Z,2.78
2022-12-06T03:12:18.494Z,2.83
2022-12-06T03:14:55.125Z,2.72
2022-12-06T03:17:43.577Z,2.38
2022-12-06T03:20:31.952Z,2.78
2022-12-06T03:23:06.585Z,2.80
2022-12-06T03:25:35.417Z,2.30
2022-12-06T03:28:05.278Z,2.25
2022-12-06T03:30:34.526Z,2.60
2022-12-06T03:33:02.907Z,2.70
2022-12-06T03:35:34.161Z,2.72
2022-12-06T03:38:12.270Z,2.80
2022-12-06T03:40:44.069Z,2.40
2022-12-06T03:43:11.116Z,2.35
2022-12-06T03:46:01.046Z,2.50
2022-12-06T03:48:34.445Z,2.40
2022-12-06T03:51:05.694Z,2.60
2022-12-06T03:53:33.099Z,2.60
2022-12-06T03:56:00.300Z,2.65
2022-12-06T03:58:27.145Z,2.70
2022-12-06T04:00:53.986Z,2.60
2022-12-06T04:03:20.707Z,2.47
2022-12-06T04:05:47.521Z,2.75
2022-12-06T04:08:14.300Z,2.22
2022-12-06T04:10:40.998Z,2.25
2022-12-06T04:13:08.725Z,2.60
2022-12-06T04:15:38.044Z,3.53
2022-12-06T04:18:16.993Z,2.00
2022-12-06T04:21:07.025Z,2.40
2022-12-06T04:23:39.040Z,2.17
2022-12-06T04:26:08.493Z,2.42
2022-12-06T04:28:53.826Z,2.10
2022-12-06T04:31:39.477Z,2.15
2022-12-06T04:34:25.213Z,1.90
2022-12-06T04:37:11.086Z,2.25
2022-12-06T04:39:38.157Z,2.08
2022-12-06T04:42:23.868Z,2.63
2022-12-06T04:44:50.705Z,2.15
2022-12-06T04:47:17.615Z,2.70
2022-12-06T04:49:44.340Z,2.28
2022-12-06T04:52:11.798Z,2.20
2022-12-06T04:54:38.752Z,2.25
2022-12-06T04:57:11.446Z,2.28
2022-12-06T04:59:40.270Z,1.98
2022-12-06T05:02:10.142Z,2.00
2022-12-06T05:04:37.019Z,2.10
2022-12-06T05:07:03.874Z,1.90
2022-12-06T05:09:30.689Z,2.08
2022-12-06T05:11:57.453Z,2.17
2022-12-06T05:14:24.239Z,2.22
2022-12-06T05:16:51.156Z,1.98
2022-12-06T05:19:17.984Z,2.20
2022-12-06T05:21:44.788Z,2.28
2022-12-06T05:24:11.865Z,1.90
2022-12-06T05:26:38.717Z,1.95
2022-12-06T05:29:05.554Z,1.88
2022-12-06T05:31:32.614Z,1.90
2022-12-06T05:33:59.392Z,2.15
2022-12-06T05:36:27.664Z,2.00
2022-12-06T05:38:54.769Z,2.22
2022-12-06T05:41:22.987Z,2.10
2022-12-06T05:43:49.999Z,2.05
2022-12-06T05:46:17.079Z,2.00
2022-12-06T05:48:44.748Z,2.00
2022-12-06T05:51:11.607Z,1.90
2022-12-06T05:53:39.045Z,2.10
2022-12-06T05:56:11.933Z,2.00
2022-12-06T05:58:39.082Z,2.00
2022-12-06T06:01:07.716Z,1.83
2022-12-06T06:03:35.466Z,1.85
2022-12-06T06:06:03.149Z,1.73
2022-12-06T06:08:30.813Z,1.80
2022-12-06T06:10:58.108Z,2.00
2022-12-06T06:13:24.952Z,1.85
2022-12-06T06:15:51.842Z,1.80
2022-12-06T06:18:19.557Z,1.88
2022-12-06T06:20:54.988Z,1.90
2022-12-06T06:23:22.261Z,1.83
2022-12-06T06:25:49.048Z,2.08
2022-12-06T06:28:16.299Z,1.63
2022-12-06T06:30:43.707Z,1.75
2022-12-06T06:33:10.651Z,1.70
2022-12-06T06:35:38.530Z,1.75
2022-12-06T06:38:05.308Z,1.98
2022-12-06T06:40:32.458Z,1.90
2022-12-06T06:43:17.881Z,1.70
2022-12-06T06:45:56.953Z,1.83
2022-12-06T06:48:24.731Z,1.80
2022-12-06T06:50:57.023Z,1.77
2022-12-06T06:53:26.442Z,2.03
2022-12-06T06:55:54.059Z,1.80
2022-12-06T06:58:21.010Z,1.92
2022-12-06T07:00:56.151Z,1.90
2022-12-06T07:03:23.963Z,1.90
2022-12-06T07:05:57.322Z,2.03
2022-12-06T07:08:25.395Z,1.70
2022-12-06T07:10:52.223Z,1.85
2022-12-06T07:13:20.837Z,1.90
2022-12-06T07:15:48.012Z,1.80
2022-12-06T07:18:17.207Z,1.85
2022-12-06T07:20:45.136Z,1.90
2022-12-06T07:23:12.840Z,1.80
2022-12-06T07:25:39.834Z,1.85
2022-12-06T07:28:06.728Z,1.63
2022-12-06T07:30:33.720Z,1.70
2022-12-06T07:33:00.465Z,1.60
2022-12-06T07:35:42.356Z,1.60
2022-12-06T07:38:14.181Z,1.92
2022-12-06T07:41:03.412Z,1.80
2022-12-06T07:43:46.449Z,1.60
2022-12-06T07:46:13.510Z,1.45
2022-12-06T07:48:40.351Z,1.58
2022-12-06T07:51:07.808Z,1.65
2022-12-06T07:53:34.611Z,1.42
2022-12-06T07:56:10.811Z,1.60
2022-12-06T07:58:37.552Z,1.55
2022-12-06T08:01:05.256Z,1.85
2022-12-06T08:03:32.109Z,1.45
2022-12-06T08:05:59.109Z,1.88
2022-12-06T08:08:28.852Z,1.90
2022-12-06T08:10:59.809Z,1.90
2022-12-06T08:13:26.611Z,1.50
2022-12-06T08:15:53.554Z,1.65
2022-12-06T08:18:20.385Z,1.80
2022-12-06T08:20:47.299Z,1.42
2022-12-06T08:23:14.135Z,1.50
2022-12-06T08:25:40.863Z,1.80
2022-12-06T08:28:07.656Z,1.75
2022-12-06T08:30:34.548Z,1.80
2022-12-06T08:33:01.246Z,1.65
2022-12-06T08:35:28.079Z,2.25
2022-12-06T08:37:54.820Z,2.00
2022-12-06T08:40:21.612Z,1.98
2022-12-06T08:42:48.354Z,2.30
2022-12-06T08:45:15.248Z,2.20
2022-12-06T08:47:41.986Z,2.20
2022-12-06T08:50:08.935Z,2.30
2022-12-06T08:52:35.678Z,2.40
2022-12-06T08:55:02.619Z,2.47
2022-12-06T08:57:29.408Z,2.40
2022-12-06T08:59:56.113Z,2.28
2022-12-06T09:02:22.889Z,2.20
2022-12-06T09:04:52.883Z,2.17
2022-12-06T09:07:20.211Z,2.50
2022-12-06T09:09:46.955Z,2.47
2022-12-06T09:12:13.824Z,2.35
2022-12-06T09:14:40.892Z,2.30
2022-12-06T09:17:07.741Z,2.63
2022-12-06T09:19:35.084Z,2.80
2022-12-06T09:22:01.933Z,2.80
2022-12-06T09:24:28.721Z,2.38
2022-12-06T09:26:55.566Z,2.42
2022-12-06T09:29:23.373Z,2.80
2022-12-06T09:31:50.267Z,2.35
2022-12-06T09:34:17.306Z,2.13
2022-12-06T09:36:50.273Z,2.60
2022-12-06T09:39:40.809Z,2.60
2022-12-06T09:42:26.084Z,2.22
2022-12-06T09:45:18.682Z,2.22
2022-12-06T09:47:56.121Z,1.92
2022-12-06T09:50:44.265Z,2.47
2022-12-06T09:53:35.068Z,2.35
2022-12-06T09:56:06.828Z,2.45
2022-12-06T09:59:20.671Z,2.45
2022-12-06T10:02:31.987Z,1.95
2022-12-06T10:05:01.565Z,2.05
2022-12-06T10:07:44.346Z,1.95
2022-12-06T10:10:28.633Z,1.80
2022-12-06T10:13:05.206Z,1.98
2022-12-06T10:16:04.601Z,2.15
2022-12-06T10:18:34.230Z,2.00
2022-12-06T10:21:17.670Z,1.70
2022-12-06T10:24:02.287Z,1.60
2022-12-06T10:26:58.490Z,1.90
2022-12-06T10:29:46.415Z,2.00
2022-12-06T10:32:30.781Z,1.77
2022-12-06T10:35:07.034Z,1.60
2022-12-06T10:37:52.575Z,2.00
2022-12-06T10:40:48.822Z,1.90
2022-12-06T10:43:29.116Z,2.28
2022-12-06T10:46:27.242Z,2.10
2022-12-06T10:49:12.569Z,2.50
2022-12-06T10:51:47.675Z,3.00
2022-12-06T10:54:49.211Z,2.33
2022-12-06T10:57:25.190Z,2.53
2022-12-06T11:00:16.249Z,2.70
2022-12-06T11:02:58.994Z,2.55
2022-12-06T11:05:43.106Z,2.80
2022-12-06T11:08:39.805Z,2.10
2022-12-06T11:11:13.927Z,2.20
2022-12-06T11:13:58.750Z,2.00
2022-12-06T11:16:41.804Z,2.40
2022-12-06T11:19:38.560Z,1.90
2022-12-06T11:22:37.219Z,2.53
2022-12-06T11:25:22.185Z,1.80
2022-12-06T11:28:05.413Z,2.20
2022-12-06T11:30:33.425Z,2.20
2022-12-06T11:33:02.005Z,2.25
2022-12-06T11:35:29.375Z,2.42
2022-12-06T11:38:00.222Z,2.67
2022-12-06T11:40:34.171Z,3.00
2022-12-06T11:43:05.517Z,2.40
2022-12-06T11:45:34.698Z,2.22
2022-12-06T11:48:11.199Z,2.50
2022-12-06T11:50:38.077Z,2.70
2022-12-06T11:53:26.774Z,2.40
2022-12-06T11:56:01.202Z,2.20
2022-12-06T11:58:37.819Z,2.17
2022-12-06T12:01:11.071Z,2.70
2022-12-06T12:03:40.755Z,2.72
2022-12-06T12:06:16.286Z,2.15
2022-12-06T12:09:02.677Z,2.60
2022-12-06T12:11:34.853Z,2.50
2022-12-06T12:14:04.605Z,2.22
2022-12-06T12:16:43.976Z,2.75
2022-12-06T12:19:38.951Z,2.90
2022-12-06T12:22:35.033Z,2.90
2022-12-06T12:25:22.553Z,2.80
2022-12-06T12:28:00.330Z,2.83
2022-12-06T12:30:34.413Z,2.60
2022-12-06T12:33:07.438Z,2.85
2022-12-06T12:35:44.196Z,2.45
2022-12-06T12:38:10.812Z,2.58
2022-12-06T12:40:47.690Z,1.90
2022-12-06T12:43:24.618Z,2.10
2022-12-06T12:46:12.441Z,1.90
2022-12-06T12:48:41.599Z,2.33
2022-12-06T12:51:20.321Z,2.45
2022-12-06T12:53:49.358Z,2.22
2022-12-06T12:56:20.566Z,2.00
2022-12-06T12:58:49.505Z,1.70
2022-12-06T13:01:25.207Z,2.05
2022-12-06T13:03:56.790Z,1.92
2022-12-06T13:06:42.647Z,2.30
2022-12-06T13:09:21.368Z,1.75
2022-12-06T13:11:55.204Z,1.80
2022-12-06T13:14:23.757Z,1.98
2022-12-06T13:16:53.828Z,1.55
2022-12-06T13:19:29.321Z,1.95
2022-12-06T13:21:56.420Z,1.70
2022-12-06T13:24:30.138Z,1.35
2022-12-06T13:27:01.065Z,2.13
2022-12-06T13:29:38.863Z,1.77
2022-12-06T13:32:15.703Z,1.90
2022-12-06T13:34:53.241Z,1.92
2022-12-06T13:37:45.750Z,1.65
2022-12-06T13:40:37.403Z,1.80
2022-12-06T13:43:27.107Z,1.75
2022-12-06T13:46:09.977Z,2.00
2022-12-06T13:48:39.709Z,1.70
2022-12-06T13:51:35.231Z,2.47
2022-12-06T13:54:05.003Z,2.10
2022-12-06T13:56:34.826Z,1.90
2022-12-06T13:59:05.741Z,1.70
2022-12-06T14:01:40.572Z,1.77
2022-12-06T14:09:47.692Z,1.70
2022-12-06T14:12:25.084Z,1.35
2022-12-06T14:15:02.578Z,1.55
2022-12-06T14:20:31.739Z,2.05
2022-12-06T14:22:58.863Z,1.58
2022-12-06T14:25:29.074Z,1.48
2022-12-06T14:28:11.364Z,1.40
2022-12-06T14:30:39.252Z,1.63
2022-12-06T14:33:19.553Z,2.00
2022-12-06T14:35:52.017Z,1.50
2022-12-06T14:41:05.310Z,1.48
2022-12-06T14:43:33.433Z,1.80
2022-12-06T14:46:02.817Z,1.80
2022-12-06T14:48:51.694Z,1.75
2022-12-06T14:51:23.380Z,1.58
2022-12-06T14:53:50.756Z,2.30
2022-12-06T14:56:30.103Z,1.80
2022-12-06T14:59:02.056Z,1.75
2022-12-06T15:01:32.283Z,2.10
2022-12-06T15:04:01.691Z,2.10
2022-12-06T15:06:30.781Z,2.10
2022-12-06T15:08:57.568Z,1.85
2022-12-06T15:11:49.042Z,2.10
2022-12-06T15:14:20.348Z,2.17
2022-12-06T15:17:14.625Z,2.10
2022-12-06T15:19:48.443Z,1.67
2022-12-06T15:22:25.191Z,1.40
2022-12-06T15:24:57.686Z,2.03
2022-12-06T15:27:26.898Z,1.80
2022-12-06T15:29:54.077Z,1.80
2022-12-06T15:32:23.837Z,2.28
2022-12-06T15:34:50.631Z,2.17
2022-12-06T15:40:04.795Z,2.30
2022-12-06T15:42:31.536Z,2.17
2022-12-06T15:44:58.328Z,2.25
2022-12-06T15:47:25.477Z,2.28
2022-12-06T15:49:53.914Z,2.20
2022-12-06T15:52:26.145Z,2.10
2022-12-06T15:54:52.870Z,2.25
2022-12-06T15:57:19.712Z,2.10
2022-12-06T15:59:46.501Z,2.30
2022-12-06T16:02:16.000Z,2.05
2022-12-06T16:04:43.463Z,2.30
2022-12-06T16:07:10.767Z,2.50
2022-12-06T16:09:40.781Z,2.42
2022-12-06T16:12:07.678Z,2.38
2022-12-06T16:14:34.419Z,2.30
2022-12-06T16:17:01.320Z,2.05
2022-12-06T16:19:48.098Z,2.30
2022-12-06T16:22:14.977Z,2.50
2022-12-06T16:24:41.758Z,2.03
2022-12-06T16:27:08.676Z,2.30
2022-12-06T16:29:35.444Z,1.73
2022-12-06T16:32:02.244Z,2.22
2022-12-06T16:34:29.586Z,2.38
2022-12-06T16:37:06.320Z,2.00
2022-12-06T16:39:34.704Z,1.90
2022-12-06T16:42:03.269Z,2.38
2022-12-06T16:44:30.172Z,3.22
2022-12-06T16:46:57.404Z,2.20
2022-12-06T16:49:45.724Z,2.60
2022-12-06T16:52:14.003Z,2.03
2022-12-06T16:54:43.812Z,2.55
2022-12-06T16:57:14.634Z,2.65
2022-12-06T16:59:42.196Z,1.98
2022-12-06T17:02:28.210Z,2.10
2022-12-06T17:04:56.216Z,2.78
2022-12-06T17:07:23.007Z,2.70
2022-12-06T17:09:49.800Z,2.35
2022-12-06T17:12:16.750Z,2.50
2022-12-06T17:14:43.638Z,2.70
2022-12-06T17:17:16.217Z,2.83
2022-12-06T17:19:43.326Z,2.83
2022-12-06T17:22:11.594Z,3.08
2022-12-06T17:24:38.795Z,2.22
2022-12-06T17:27:06.865Z,2.90
2022-12-06T17:29:34.229Z,2.60
2022-12-06T17:32:01.227Z,1.98
2022-12-06T17:34:28.280Z,2.88
2022-12-06T17:36:57.372Z,2.65
2022-12-06T17:39:24.150Z,3.13
2022-12-06T17:42:09.706Z,1.42
2022-12-06T17:44:36.794Z,3.03
2022-12-06T17:47:03.621Z,1.88
2022-12-06T17:49:30.414Z,2.50
2022-12-06T17:51:57.283Z,2.95
2022-12-06T17:54:24.092Z,2.05
2022-12-06T17:56:53.188Z,2.85
2022-12-06T17:59:26.031Z,3.17
2022-12-06T18:04:41.323Z,2.45
2022-12-06T18:07:08.293Z,1.42
2022-12-06T18:09:35.160Z,3.40
2022-12-06T18:12:02.157Z,3.35
2022-12-06T18:14:29.937Z,3.70
2022-12-06T18:16:56.963Z,3.60
2022-12-06T18:19:24.274Z,3.55
2022-12-06T18:21:53.013Z,3.70
2022-12-06T18:24:23.216Z,3.58
2022-12-06T18:29:21.179Z,3.63
2022-12-06T18:31:48.573Z,3.08
2022-12-06T18:34:15.711Z,3.40
2022-12-06T18:36:42.752Z,3.60
2022-12-06T18:39:15.328Z,3.80
2022-12-06T18:41:43.896Z,3.22
2022-12-06T18:44:11.287Z,3.70
2022-12-06T18:46:39.159Z,2.88
2022-12-06T18:49:06.921Z,3.22
2022-12-06T18:51:35.347Z,2.50
2022-12-06T18:54:04.562Z,3.58
2022-12-06T18:56:32.992Z,2.65
2022-12-06T18:59:02.328Z,3.30
2022-12-06T19:01:32.025Z,3.10
2022-12-06T19:04:00.932Z,2.22
2022-12-06T19:06:30.895Z,2.45
2022-12-06T19:09:01.374Z,1.83
2022-12-06T19:11:28.183Z,3.47
2022-12-06T19:13:57.904Z,3.45
2022-12-06T19:16:45.257Z,3.00
2022-12-06T19:19:16.901Z,3.78
2022-12-06T19:21:45.817Z,3.03
2022-12-06T19:24:15.718Z,2.05
2022-12-06T19:26:42.666Z,3.45
2022-12-06T19:29:09.498Z,4.15
2022-12-06T19:31:36.444Z,4.25
2022-12-06T19:34:03.197Z,3.85
2022-12-06T19:36:31.632Z,4.18
2022-12-06T19:39:01.288Z,3.70
2022-12-06T19:41:28.887Z,3.13
2022-12-06T19:44:14.466Z,4.20
2022-12-06T19:46:43.459Z,3.90
2022-12-06T19:49:11.442Z,3.22
2022-12-06T19:51:39.960Z,3.67
2022-12-06T19:54:07.678Z,2.75
2022-12-06T19:56:35.489Z,2.45
2022-12-06T19:59:11.355Z,4.10
2022-12-06T20:01:40.652Z,3.90
2022-12-06T20:04:07.743Z,2.95
2022-12-06T20:06:35.353Z,3.35
2022-12-06T20:09:02.528Z,3.30
2022-12-06T20:11:47.908Z,3.25
2022-12-06T20:14:17.693Z,4.20
2022-12-06T20:16:45.299Z,4.03
2022-12-06T20:19:15.440Z,3.80
2022-12-06T20:21:42.676Z,4.45
2022-12-06T20:24:18.902Z,3.83
2022-12-06T20:26:47.165Z,3.00
2022-12-06T20:29:13.963Z,2.83
2022-12-06T20:31:40.927Z,4.50
2022-12-06T20:34:13.124Z,4.10
2022-12-06T20:36:41.707Z,3.58
2022-12-06T20:39:08.751Z,4.78
2022-12-06T20:41:35.557Z,5.10
2022-12-06T20:44:02.773Z,5.00
2022-12-06T20:46:31.220Z,5.72
2022-12-06T20:49:03.654Z,5.20
2022-12-06T20:51:31.373Z,4.85
2022-12-06T20:54:00.766Z,5.47
2022-12-06T20:56:31.243Z,4.32
2022-12-06T20:58:59.830Z,4.70
2022-12-06T21:01:29.844Z,3.55
2022-12-06T21:03:57.205Z,5.18
2022-12-06T21:06:25.220Z,4.43
2022-12-06T21:08:52.830Z,4.70
2022-12-06T21:11:23.419Z,4.47
2022-12-06T21:13:53.519Z,3.80
2022-12-06T21:16:29.186Z,3.80
2022-12-06T21:18:59.281Z,6.20
2022-12-06T21:21:32.502Z,5.65
2022-12-06T21:24:00.451Z,5.57
2022-12-06T21:26:28.536Z,5.63
2022-12-06T21:28:55.708Z,5.78
2022-12-06T21:31:27.791Z,5.22
2022-12-06T21:33:55.206Z,5.53
2022-12-06T21:36:22.049Z,5.13
2022-12-06T21:38:48.752Z,4.68
2022-12-06T21:41:15.631Z,4.50
2022-12-06T21:43:42.481Z,4.97
2022-12-06T21:46:13.753Z,4.53
2022-12-06T21:48:40.972Z,4.50
2022-12-06T21:51:10.170Z,4.70
2022-12-06T21:53:37.486Z,4.53
2022-12-06T21:56:09.404Z,4.70
2022-12-06T21:58:36.639Z,3.90
2022-12-06T22:01:08.836Z,4.13
2022-12-06T22:03:36.131Z,3.97
2022-12-06T22:06:08.340Z,4.45
2022-12-06T22:08:35.836Z,4.50
2022-12-06T22:11:14.582Z,4.47
2022-12-06T22:13:41.913Z,5.38
2022-12-06T22:16:11.614Z,4.35
2022-12-06T22:18:44.947Z,4.20
2022-12-06T22:21:15.962Z,3.80
2022-12-06T22:23:42.946Z,3.70
2022-12-06T22:26:12.769Z,3.95
2022-12-06T22:28:39.458Z,3.90
2022-12-06T22:31:21.597Z,3.97
2022-12-06T22:33:49.584Z,3.60
2022-12-06T22:36:17.308Z,4.07
2022-12-06T22:38:44.197Z,4.10
2022-12-06T22:41:11.192Z,3.30
2022-12-06T22:43:38.027Z,3.90
2022-12-06T22:46:13.139Z,3.60
2022-12-06T22:48:40.570Z,4.18
2022-12-06T22:51:14.169Z,3.55
2022-12-06T22:53:43.571Z,3.83
2022-12-06T22:56:10.623Z,3.80
2022-12-06T22:58:37.717Z,3.60
2022-12-06T23:01:17.036Z,4.32
2022-12-06T23:03:45.721Z,3.40
2022-12-06T23:06:13.707Z,3.72
2022-12-06T23:08:40.492Z,3.80
2022-12-06T23:11:19.375Z,3.72
2022-12-06T23:13:46.172Z,3.83
2022-12-06T23:16:21.599Z,4.03
2022-12-06T23:18:48.818Z,3.58
2022-12-06T23:21:17.616Z,3.72
2022-12-06T23:23:52.586Z,4.03
2022-12-06T23:26:22.217Z,3.97
2022-12-06T23:28:49.547Z,4.90
2022-12-06T23:31:19.490Z,4.03
2022-12-06T23:33:47.432Z,3.80
2022-12-06T23:36:19.809Z,4.00
2022-12-06T23:38:46.903Z,4.03
2022-12-06T23:41:19.931Z,3.67
2022-12-06T23:43:47.195Z,4.07
2022-12-06T23:46:21.955Z,3.85
2022-12-06T23:48:50.154Z,4.10
2022-12-06T23:51:19.701Z,4.25
2022-12-06T23:53:54.072Z,4.28
2022-12-06T23:56:22.554Z,3.83
2022-12-06T23:58:50.777Z,3.97
